createdAt,value
2023-04-04T00:04:42.073Z,99396.20
2023-04-04T00:14:49.323Z,99386.15
2023-04-04T00:24:57.346Z,99374.42
2023-04-04T00:35:04.438Z,99368.60
2023-04-04T00:45:09.342Z,99366.90
2023-04-04T00:55:16.868Z,99366.67
2023-04-04T01:05:24.148Z,99356.66
2023-04-04T01:15:32.066Z,99361.59
2023-04-04T01:25:39.970Z,99353.36
2023-04-04T01:35:53.873Z,99346.35
2023-04-04T01:46:00.189Z,99349.15
2023-04-04T01:56:07.098Z,99349.26
2023-04-04T02:06:14.592Z,99352.36
2023-04-04T02:16:21.876Z,99355.08
2023-04-04T02:26:29.108Z,99365.97
2023-04-04T02:36:36.492Z,99371.66
2023-04-04T02:46:43.500Z,99375.92
2023-04-04T02:56:50.718Z,99372.69
2023-04-04T03:06:58.059Z,99371.32
2023-04-04T03:17:05.232Z,99370.06
2023-04-04T03:27:12.147Z,99371.27
2023-04-04T03:37:19.073Z,99369.08
2023-04-04T03:47:26.902Z,99363.77
2023-04-04T03:57:34.761Z,99363.39
2023-04-04T04:07:43.940Z,99360.23
2023-04-04T04:17:50.954Z,99362.04
2023-04-04T04:27:57.998Z,99362.87
2023-04-04T04:38:05.112Z,99352.56
2023-04-04T04:48:13.257Z,99354.10
2023-04-04T04:58:20.116Z,99350.11
2023-04-04T05:08:31.119Z,99355.08
2023-04-04T05:18:38.922Z,99356.81
2023-04-04T05:28:46.123Z,99360.83
2023-04-04T05:38:52.873Z,99354.30
2023-04-04T05:49:00.155Z,99358.41
2023-04-04T05:59:07.795Z,99358.40
2023-04-04T06:09:14.997Z,99354.66
2023-04-04T06:19:22.213Z,99348.94
2023-04-04T06:29:29.252Z,99356.13
2023-04-04T06:39:36.795Z,99349.33
2023-04-04T06:49:43.997Z,99341.38
2023-04-04T06:59:51.464Z,99334.21
2023-04-04T07:09:58.496Z,99334.30
2023-04-04T07:20:05.115Z,99330.78
2023-04-04T07:30:13.019Z,99332.23
2023-04-04T07:40:20.241Z,99332.93
2023-04-04T07:50:26.622Z,99326.71
2023-04-04T08:00:34.384Z,99326.18
2023-04-04T08:10:40.844Z,99323.73
2023-04-04T08:20:48.592Z,99325.58
2023-04-04T08:30:54.610Z,99321.52
2023-04-04T08:41:00.149Z,99322.38
2023-04-04T08:51:09.502Z,99314.58
2023-04-04T09:01:16.614Z,99319.22
2023-04-04T09:11:24.723Z,99319.93
2023-04-04T09:21:36.195Z,99313.48
2023-04-04T09:31:46.851Z,99307.30
2023-04-04T09:41:56.046Z,99313.38
2023-04-04T09:52:03.264Z,99304.83
2023-04-04T10:02:09.125Z,99307.77
2023-04-04T10:12:17.548Z,99309.80
2023-04-04T10:22:25.939Z,99311.00
2023-04-04T10:32:32.790Z,99306.30
2023-04-04T10:42:39.067Z,99306.26
2023-04-04T10:52:47.480Z,99299.86
2023-04-04T11:02:58.196Z,99297.13
2023-04-04T11:13:12.326Z,99300.77
2023-04-04T11:23:21.224Z,99307.13
2023-04-04T11:33:33.766Z,99307.17
2023-04-04T11:43:45.603Z,99303.14
2023-04-04T11:53:52.878Z,99297.16
2023-04-04T12:04:01.556Z,99286.73
2023-04-04T12:14:07.969Z,99289.36
2023-04-04T12:24:16.058Z,99294.06
2023-04-04T12:34:22.104Z,99296.55
2023-04-04T12:44:26.998Z,99301.23
2023-04-04T12:54:36.668Z,99299.90
2023-04-04T13:04:46.809Z,99291.98
2023-04-04T13:15:03.157Z,99286.73
2023-04-04T13:25:10.378Z,99269.41
2023-04-04T13:35:17.511Z,99271.03
2023-04-04T13:45:24.846Z,99276.38
2023-04-04T13:55:31.042Z,99276.69
2023-04-04T14:05:38.587Z,99280.47
2023-04-04T14:15:45.732Z,99274.29
2023-04-04T14:25:52.875Z,99267.88
2023-04-04T14:35:59.941Z,99264.73
2023-04-04T14:46:07.555Z,99251.34
2023-04-04T14:56:15.073Z,99255.89
2023-04-04T15:06:22.272Z,99255.16
2023-04-04T15:16:33.210Z,99257.14
2023-04-04T15:26:40.974Z,99252.46
2023-04-04T15:36:50.286Z,99250.45
2023-04-04T15:46:58.082Z,99245.69
2023-04-04T15:57:04.511Z,99242.27
2023-04-04T16:07:12.088Z,99241.20
2023-04-04T16:17:19.198Z,99244.86
2023-04-04T16:27:26.137Z,99249.19
2023-04-04T16:37:33.988Z,99249.48
2023-04-04T16:47:41.650Z,99248.79
2023-04-04T16:57:49.781Z,99237.15
2023-04-04T17:07:57.120Z,99230.48
2023-04-04T17:18:04.377Z,99234.84
2023-04-04T17:28:11.619Z,99235.48
2023-04-04T17:38:17.348Z,99245.36
2023-04-04T17:48:26.138Z,99250.50
2023-04-04T17:58:33.209Z,99253.48
2023-04-04T18:08:40.465Z,99254.59
2023-04-04T18:18:45.299Z,99252.80
2023-04-04T18:28:52.338Z,99246.54
2023-04-04T18:39:01.254Z,99253.41
2023-04-04T18:49:08.727Z,99253.46
2023-04-04T18:59:15.240Z,99261.92
2023-04-04T19:09:21.825Z,99270.98
2023-04-04T19:19:29.354Z,99273.15
2023-04-04T19:29:37.822Z,99268.23
2023-04-04T19:39:45.286Z,99267.17
2023-04-04T19:49:51.441Z,99264.66
2023-04-04T20:00:13.635Z,99261.20
2023-04-04T20:10:36.556Z,99250.89
2023-04-04T20:20:47.793Z,99243.87
2023-04-04T20:30:55.720Z,99242.73
2023-04-04T20:41:03.464Z,99243.04
2023-04-04T20:51:27.262Z,99241.19
2023-04-04T21:01:34.378Z,99239.75
2023-04-04T21:11:43.694Z,99231.25
2023-04-04T21:21:51.591Z,99228.57
2023-04-04T21:32:00.236Z,99224.70
2023-04-04T21:42:09.167Z,99227.08
2023-04-04T21:52:16.339Z,99226.13
2023-04-04T22:02:23.319Z,99220.19
2023-04-04T22:22:53.864Z,99213.32
2023-04-04T22:33:01.080Z,99216.06
2023-04-04T22:43:08.311Z,99211.92
2023-04-04T22:53:15.217Z,99205.48
2023-04-04T23:13:28.387Z,99194.98
2023-04-04T23:23:36.755Z,99178.60
2023-04-04T23:33:43.862Z,99171.90
2023-04-04T23:43:50.957Z,99164.86
2023-04-04T23:53:57.254Z,99153.98
